createdAt,value
2023-01-19T00:01:56.507Z,97685.89
2023-01-19T00:04:27.348Z,97689.70
2023-01-19T00:06:57.998Z,97691.02
2023-01-19T00:09:33.571Z,97695.89
2023-01-19T00:12:04.475Z,97699.02
2023-01-19T00:14:35.249Z,97707.38
2023-01-19T00:17:06.315Z,97710.39
2023-01-19T00:19:37.542Z,97713.83
2023-01-19T00:22:08.336Z,97716.67
2023-01-19T00:24:39.007Z,97716.40
2023-01-19T00:27:09.699Z,97717.82
2023-01-19T00:29:40.652Z,97722.52
2023-01-19T00:32:11.405Z,97724.15
2023-01-19T00:34:42.700Z,97727.08
2023-01-19T00:37:13.508Z,97728.63
2023-01-19T00:39:44.408Z,97733.13
2023-01-19T00:42:33.753Z,97738.13
2023-01-19T00:45:05.367Z,97745.05
2023-01-19T00:47:36.286Z,97757.27
2023-01-19T00:50:08.132Z,97756.30
2023-01-19T00:52:38.976Z,97763.21
2023-01-19T00:55:13.041Z,97760.09
2023-01-19T00:57:46.595Z,97762.44
2023-01-19T01:00:19.485Z,97764.19
2023-01-19T01:02:52.028Z,97766.63
2023-01-19T01:05:23.513Z,97766.14
2023-01-19T01:07:54.273Z,97770.18
2023-01-19T01:10:27.157Z,97772.61
2023-01-19T01:12:58.229Z,97773.08
2023-01-19T01:15:29.996Z,97771.41
2023-01-19T01:18:00.700Z,97768.44
2023-01-19T01:20:33.755Z,97772.21
2023-01-19T01:23:04.787Z,97769.98
2023-01-19T01:25:37.952Z,97774.42
2023-01-19T01:28:09.961Z,97785.38
2023-01-19T01:30:43.405Z,97789.80
2023-01-19T01:33:14.249Z,97791.80
2023-01-19T01:35:45.450Z,97797.62
2023-01-19T01:38:16.165Z,97799.58
2023-01-19T01:40:46.983Z,97799.09
2023-01-19T01:43:20.566Z,97800.48
2023-01-19T01:45:51.305Z,97800.93
2023-01-19T01:48:27.067Z,97796.52
2023-01-19T01:51:19.378Z,97793.14
2023-01-19T01:53:54.689Z,97793.19
2023-01-19T01:56:33.339Z,97790.48
2023-01-19T01:59:07.742Z,97791.27
2023-01-19T02:01:56.828Z,97793.90
2023-01-19T02:04:27.967Z,97791.34
2023-01-19T02:07:16.616Z,97787.98
2023-01-19T02:10:05.024Z,97783.46
2023-01-19T02:12:53.494Z,97787.36
2023-01-19T02:15:24.432Z,97787.91
2023-01-19T02:17:55.280Z,97780.35
2023-01-19T02:20:28.909Z,97779.54
2023-01-19T02:23:08.494Z,97778.48
2023-01-19T02:25:40.687Z,97781.57
2023-01-19T02:28:12.581Z,97775.77
2023-01-19T02:30:43.916Z,97773.45
2023-01-19T02:33:14.752Z,97773.84
2023-01-19T02:35:47.478Z,97775.45
2023-01-19T02:38:20.414Z,97774.67
2023-01-19T02:40:51.872Z,97776.04
2023-01-19T02:43:23.873Z,97782.19
2023-01-19T02:45:55.247Z,97792.79
2023-01-19T02:48:26.307Z,97794.22
2023-01-19T02:51:04.478Z,97801.91
2023-01-19T02:53:54.769Z,97804.32
2023-01-19T02:56:56.308Z,97808.80
2023-01-19T02:59:42.577Z,97812.89
2023-01-19T03:02:27.842Z,97817.94
2023-01-19T03:05:09.807Z,97818.56
2023-01-19T03:07:52.264Z,97823.58
2023-01-19T03:10:32.453Z,97821.79
2023-01-19T03:13:12.132Z,97824.84
2023-01-19T03:15:49.450Z,97827.13
2023-01-19T03:18:26.143Z,97823.34
2023-01-19T03:21:00.372Z,97817.70
2023-01-19T03:23:35.032Z,97815.39
2023-01-19T03:26:08.596Z,97815.39
2023-01-19T03:28:43.756Z,97817.87
2023-01-19T03:31:18.705Z,97818.30
2023-01-19T03:33:52.938Z,97824.36
2023-01-19T03:36:28.340Z,97825.56
2023-01-19T03:39:02.783Z,97818.26
2023-01-19T03:41:35.568Z,97819.58
2023-01-19T03:44:08.823Z,97811.17
2023-01-19T03:46:40.242Z,97815.77
2023-01-19T03:49:11.307Z,97817.14
2023-01-19T03:51:42.718Z,97823.45
2023-01-19T03:54:14.055Z,97827.25
2023-01-19T03:56:45.115Z,97834.27
2023-01-19T03:59:17.584Z,97841.12
2023-01-19T04:01:48.473Z,97846.20
2023-01-19T04:04:19.477Z,97845.50
2023-01-19T04:06:50.123Z,97853.14
2023-01-19T04:09:21.654Z,97859.42
2023-01-19T04:11:52.753Z,97861.67
2023-01-19T04:14:23.555Z,97863.60
2023-01-19T04:16:54.447Z,97870.23
2023-01-19T04:19:25.610Z,97876.79
2023-01-19T04:21:57.200Z,97879.50
2023-01-19T04:24:28.213Z,97883.20
2023-01-19T04:26:59.190Z,97885.58
2023-01-19T04:29:30.032Z,97888.09
2023-01-19T04:32:00.684Z,97887.19
2023-01-19T04:34:31.825Z,97883.62
2023-01-19T04:37:02.459Z,97890.70
2023-01-19T04:39:33.120Z,97902.13
2023-01-19T04:42:03.734Z,97903.90
2023-01-19T04:44:34.459Z,97901.83
2023-01-19T04:47:05.188Z,97902.66
2023-01-19T04:49:37.809Z,97903.58
2023-01-19T04:52:09.414Z,97905.86
2023-01-19T04:54:40.272Z,97906.69
2023-01-19T04:57:11.006Z,97915.34
2023-01-19T04:59:41.887Z,97922.77
2023-01-19T05:02:12.686Z,97927.48
2023-01-19T05:04:43.511Z,97932.64
2023-01-19T05:07:14.363Z,97941.50
2023-01-19T05:09:45.339Z,97947.77
2023-01-19T05:12:15.987Z,97957.43
2023-01-19T05:14:46.787Z,97965.90
2023-01-19T05:17:17.625Z,97970.64
2023-01-19T05:19:49.085Z,97968.88
2023-01-19T05:22:19.907Z,97967.62
2023-01-19T05:24:50.554Z,97966.00
2023-01-19T05:27:21.584Z,97970.46
2023-01-19T05:29:52.443Z,97969.86
2023-01-19T05:32:23.220Z,97974.52
2023-01-19T05:34:53.920Z,97978.27
2023-01-19T05:37:24.514Z,97986.88
2023-01-19T05:39:55.660Z,97989.59
2023-01-19T05:42:26.285Z,97996.14
2023-01-19T05:44:56.904Z,97998.16
2023-01-19T05:47:30.142Z,97996.20
2023-01-19T05:50:01.123Z,97994.01
2023-01-19T05:52:31.806Z,97999.45
2023-01-19T05:55:02.602Z,98000.89
2023-01-19T05:57:33.471Z,98002.57
2023-01-19T06:00:04.608Z,98004.69
2023-01-19T06:02:35.256Z,98003.13
2023-01-19T06:05:06.819Z,98005.04
2023-01-19T06:07:37.496Z,97997.98
2023-01-19T06:10:10.479Z,98002.27
2023-01-19T06:12:42.081Z,98004.35
2023-01-19T06:15:14.504Z,98003.83
2023-01-19T06:17:45.218Z,98002.66
2023-01-19T06:20:16.682Z,97996.69
2023-01-19T06:22:47.805Z,97992.23
2023-01-19T06:25:18.699Z,97993.25
2023-01-19T06:27:49.464Z,97995.27
2023-01-19T06:30:21.496Z,97991.06
2023-01-19T06:32:52.275Z,97985.88
2023-01-19T06:35:22.981Z,97984.11
2023-01-19T06:37:54.477Z,97988.11
2023-01-19T06:40:25.166Z,97990.52
2023-01-19T06:42:56.026Z,97988.03
2023-01-19T06:45:26.892Z,97989.79
2023-01-19T06:47:57.592Z,97991.48
2023-01-19T06:50:28.587Z,97991.04
2023-01-19T06:52:59.694Z,97999.32
2023-01-19T06:55:31.033Z,97998.98
2023-01-19T06:58:02.334Z,97995.29
2023-01-19T07:00:33.493Z,98000.49
2023-01-19T07:03:05.308Z,98001.31
2023-01-19T07:05:37.569Z,98006.50
2023-01-19T07:08:08.611Z,98010.23
2023-01-19T07:11:25.800Z,98008.31
2023-01-19T07:13:30.313Z,98015.17
2023-01-19T07:16:01.159Z,98016.52
2023-01-19T07:18:32.017Z,98016.61
2023-01-19T07:21:02.976Z,98016.15
2023-01-19T07:23:34.094Z,98020.21
2023-01-19T07:26:05.168Z,98025.44
2023-01-19T07:28:37.248Z,98030.84
2023-01-19T07:31:09.935Z,98030.89
2023-01-19T07:33:41.066Z,98035.75
2023-01-19T07:36:13.141Z,98041.58
2023-01-19T07:38:43.975Z,98043.17
2023-01-19T07:41:14.711Z,98046.10
2023-01-19T07:43:45.557Z,98050.61
2023-01-19T07:46:16.454Z,98055.43
2023-01-19T07:48:47.891Z,98058.44
2023-01-19T07:51:19.253Z,98059.39
2023-01-19T07:53:53.105Z,98059.55
2023-01-19T07:56:24.871Z,98060.79
2023-01-19T07:58:55.607Z,98061.44
2023-01-19T08:01:26.414Z,98061.76
2023-01-19T08:03:57.491Z,98065.30
2023-01-19T08:06:33.856Z,98061.61
2023-01-19T08:09:05.796Z,98061.19
2023-01-19T08:11:36.870Z,98055.86
2023-01-19T08:14:08.096Z,98060.67
2023-01-19T08:16:41.547Z,98057.79
2023-01-19T08:19:12.461Z,98065.02
2023-01-19T08:21:43.195Z,98072.87
2023-01-19T08:24:22.925Z,98073.55
2023-01-19T08:26:52.107Z,98071.64
2023-01-19T08:29:23.603Z,98079.21
2023-01-19T08:31:55.744Z,98082.55
2023-01-19T08:34:27.277Z,98088.73
2023-01-19T08:36:58.384Z,98096.39
2023-01-19T08:39:29.437Z,98102.55
2023-01-19T08:42:00.842Z,98106.48
2023-01-19T08:44:31.610Z,98112.16
2023-01-19T08:47:02.361Z,98112.06
2023-01-19T08:49:33.176Z,98117.14
2023-01-19T08:52:04.323Z,98124.52
2023-01-19T08:54:35.825Z,98126.45
2023-01-19T08:57:06.839Z,98130.20
2023-01-19T08:59:38.251Z,98129.98
2023-01-19T09:02:11.267Z,98128.26
2023-01-19T09:04:42.118Z,98130.55
2023-01-19T09:07:12.895Z,98134.60
2023-01-19T09:09:44.505Z,98135.50
2023-01-19T09:12:16.821Z,98134.70
2023-01-19T09:14:47.714Z,98139.34
2023-01-19T09:17:18.972Z,98139.96
2023-01-19T09:19:49.732Z,98136.30
2023-01-19T09:22:20.863Z,98133.84
2023-01-19T09:24:51.708Z,98131.02
2023-01-19T09:27:22.391Z,98127.15
2023-01-19T09:29:54.150Z,98126.62
2023-01-19T09:32:25.430Z,98133.08
2023-01-19T09:34:56.668Z,98135.55
2023-01-19T09:37:27.421Z,98137.64
2023-01-19T09:39:58.244Z,98136.19
2023-01-19T09:42:38.281Z,98130.90
2023-01-19T09:45:14.896Z,98124.15
2023-01-19T09:47:47.013Z,98127.81
2023-01-19T09:50:22.658Z,98129.09
2023-01-19T09:53:01.545Z,98130.93
2023-01-19T09:55:33.401Z,98130.80
2023-01-19T09:58:05.013Z,98133.34
2023-01-19T10:00:35.943Z,98139.77
2023-01-19T10:03:16.615Z,98142.82
2023-01-19T10:05:53.152Z,98137.75
2023-01-19T10:08:32.320Z,98137.36
2023-01-19T10:11:03.308Z,98133.75
2023-01-19T10:13:40.354Z,98134.30
2023-01-19T10:16:26.235Z,98140.83
2023-01-19T10:18:58.769Z,98137.61
2023-01-19T10:21:33.505Z,98131.17
2023-01-19T10:24:09.596Z,98130.91
2023-01-19T10:26:45.479Z,98134.21
2023-01-19T10:29:22.270Z,98135.04
2023-01-19T10:32:00.030Z,98136.40
2023-01-19T10:34:30.929Z,98133.81
2023-01-19T10:37:06.770Z,98138.33
2023-01-19T10:39:38.864Z,98142.56
2023-01-19T10:42:17.034Z,98145.46
2023-01-19T10:44:48.499Z,98145.31
2023-01-19T10:47:20.934Z,98143.00
2023-01-19T10:49:52.284Z,98141.23
2023-01-19T10:52:31.001Z,98142.92
2023-01-19T10:55:03.404Z,98142.75
2023-01-19T10:57:37.696Z,98141.91
2023-01-19T11:00:30.370Z,98143.25
2023-01-19T11:03:02.355Z,98147.55
2023-01-19T11:05:35.384Z,98149.66
2023-01-19T11:08:29.199Z,98154.52
2023-01-19T11:11:04.521Z,98146.56
2023-01-19T11:14:10.378Z,98137.47
2023-01-19T11:16:42.301Z,98134.41
2023-01-19T11:19:26.437Z,98131.35
2023-01-19T11:22:12.295Z,98131.15
2023-01-19T11:24:41.906Z,98131.14
2023-01-19T11:27:17.639Z,98131.56
2023-01-19T11:29:54.864Z,98130.61
2023-01-19T11:32:28.427Z,98128.77
2023-01-19T11:35:00.920Z,98125.14
2023-01-19T11:37:34.658Z,98127.15
2023-01-19T11:40:06.911Z,98125.98
2023-01-19T11:42:38.940Z,98122.55
2023-01-19T11:45:17.315Z,98120.13
2023-01-19T11:47:52.520Z,98116.06
2023-01-19T11:50:29.618Z,98110.33
2023-01-19T11:53:07.171Z,98114.55
2023-01-19T11:55:43.408Z,98118.55
2023-01-19T11:58:16.758Z,98115.72
2023-01-19T12:00:52.271Z,98114.28
2023-01-19T12:03:30.675Z,98112.98
2023-01-19T12:06:05.458Z,98112.15
2023-01-19T12:08:40.501Z,98108.73
2023-01-19T12:11:17.856Z,98108.98
2023-01-19T12:13:50.859Z,98108.39
2023-01-19T12:16:22.217Z,98100.97
2023-01-19T12:18:57.682Z,98101.10
2023-01-19T12:21:28.460Z,98097.11
2023-01-19T12:24:13.489Z,98094.80
2023-01-19T12:26:52.638Z,98100.77
2023-01-19T12:29:25.987Z,98100.45
2023-01-19T12:32:19.880Z,98100.46
2023-01-19T12:34:53.709Z,98100.36
2023-01-19T12:37:41.738Z,98100.96
2023-01-19T12:40:26.301Z,98101.39
2023-01-19T12:43:04.849Z,98103.29
2023-01-19T12:45:39.752Z,98101.81
2023-01-19T12:48:27.302Z,98106.21
2023-01-19T12:50:58.480Z,98112.34
2023-01-19T12:53:30.616Z,98108.95
2023-01-19T12:56:10.094Z,98109.70
2023-01-19T12:58:41.062Z,98111.05
2023-01-19T13:01:21.847Z,98118.04
2023-01-19T13:04:06.881Z,98118.89
2023-01-19T13:07:11.049Z,98125.47
2023-01-19T13:09:43.409Z,98127.34
2023-01-19T13:12:29.046Z,98134.11
2023-01-19T13:15:30.444Z,98138.21
2023-01-19T13:18:01.873Z,98143.16
2023-01-19T13:20:44.905Z,98145.94
2023-01-19T13:23:22.933Z,98149.01
2023-01-19T13:26:01.159Z,98151.08
2023-01-19T13:28:37.154Z,98152.36
2023-01-19T13:31:10.153Z,98153.10
2023-01-19T13:33:51.873Z,98153.48
2023-01-19T13:36:30.249Z,98156.27
2023-01-19T13:39:04.481Z,98158.70
2023-01-19T13:41:40.317Z,98156.88
2023-01-19T13:44:15.006Z,98155.25
2023-01-19T13:46:47.202Z,98150.67
2023-01-19T13:49:22.251Z,98145.38
2023-01-19T13:54:53.812Z,98157.20
2023-01-19T13:57:29.918Z,98160.60
2023-01-19T14:00:20.111Z,98159.02
2023-01-19T14:03:21.549Z,98158.55
2023-01-19T14:05:55.630Z,98157.14
2023-01-19T14:08:26.814Z,98153.23
2023-01-19T14:11:04.659Z,98156.48
2023-01-19T14:13:40.283Z,98159.73
2023-01-19T14:16:16.656Z,98159.41
2023-01-19T14:18:47.415Z,98161.10
2023-01-19T14:21:18.718Z,98159.75
2023-01-19T14:23:52.076Z,98160.86
2023-01-19T14:26:46.266Z,98159.34
2023-01-19T14:29:25.849Z,98159.02
2023-01-19T14:32:12.811Z,98157.64
2023-01-19T14:34:44.957Z,98159.92
2023-01-19T14:37:28.077Z,98160.00
2023-01-19T14:40:04.784Z,98165.68
2023-01-19T14:42:39.523Z,98165.92
2023-01-19T14:45:21.275Z,98170.23
2023-01-19T14:47:58.414Z,98172.70
2023-01-19T14:50:31.716Z,98171.26
2023-01-19T14:53:05.165Z,98171.95
2023-01-19T14:55:40.728Z,98177.45
2023-01-19T14:58:22.123Z,98178.43
2023-01-19T15:00:55.817Z,98179.09
2023-01-19T15:03:35.052Z,98181.98
2023-01-19T15:06:17.035Z,98186.27
2023-01-19T15:08:50.354Z,98187.83
2023-01-19T15:11:25.891Z,98189.95
2023-01-19T15:13:57.151Z,98187.77
2023-01-19T15:16:30.227Z,98187.00
2023-01-19T15:19:01.263Z,98191.23
2023-01-19T15:21:32.576Z,98188.69
2023-01-19T15:24:03.287Z,98193.48
2023-01-19T15:26:34.156Z,98193.77
2023-01-19T15:29:11.130Z,98197.85
2023-01-19T15:31:41.893Z,98200.77
2023-01-19T15:34:14.844Z,98204.05
2023-01-19T15:36:45.744Z,98204.73
2023-01-19T15:39:16.478Z,98206.02
2023-01-19T15:41:47.293Z,98206.93
2023-01-19T15:44:18.043Z,98204.16
2023-01-19T15:46:48.981Z,98209.14
2023-01-19T15:49:21.723Z,98210.15
2023-01-19T15:51:52.837Z,98211.48
2023-01-19T15:54:23.793Z,98213.58
2023-01-19T15:56:54.773Z,98210.92
2023-01-19T15:59:26.016Z,98215.46
2023-01-19T16:01:57.023Z,98219.30
2023-01-19T16:04:27.925Z,98222.69
2023-01-19T16:06:58.653Z,98222.73
2023-01-19T16:09:29.588Z,98221.83
2023-01-19T16:12:00.566Z,98226.76
2023-01-19T16:14:31.791Z,98231.02
2023-01-19T16:17:02.576Z,98234.23
2023-01-19T16:19:33.430Z,98236.95
2023-01-19T16:22:05.811Z,98240.84
2023-01-19T16:24:36.669Z,98247.79
2023-01-19T16:27:08.990Z,98245.68
2023-01-19T16:29:40.048Z,98250.83
2023-01-19T16:32:10.934Z,98254.42
2023-01-19T16:34:42.244Z,98256.52
2023-01-19T16:37:13.493Z,98257.92
2023-01-19T16:39:45.574Z,98262.45
2023-01-19T16:42:16.681Z,98261.74
2023-01-19T16:44:47.489Z,98264.81
2023-01-19T16:47:18.258Z,98271.99
2023-01-19T16:49:49.169Z,98275.09
2023-01-19T16:52:20.203Z,98277.57
2023-01-19T16:54:54.741Z,98281.96
2023-01-19T16:57:25.582Z,98277.52
2023-01-19T16:59:56.642Z,98278.69
2023-01-19T17:02:27.989Z,98281.56
2023-01-19T17:05:00.756Z,98284.77
2023-01-19T17:07:31.673Z,98285.39
2023-01-19T17:10:02.605Z,98291.41
2023-01-19T17:12:33.623Z,98290.80
2023-01-19T17:15:05.139Z,98297.60
2023-01-19T17:17:36.809Z,98301.16
2023-01-19T17:20:10.136Z,98301.33
2023-01-19T17:22:41.349Z,98307.04
2023-01-19T17:25:12.462Z,98307.77
2023-01-19T17:27:43.360Z,98307.12
2023-01-19T17:30:15.931Z,98312.55
2023-01-19T17:32:46.834Z,98314.48
2023-01-19T17:35:17.739Z,98314.94
2023-01-19T17:37:48.684Z,98319.85
2023-01-19T17:40:20.542Z,98317.55
2023-01-19T17:42:51.655Z,98322.54
2023-01-19T17:45:22.728Z,98321.25
2023-01-19T17:47:53.943Z,98326.30
2023-01-19T17:50:25.201Z,98330.53
2023-01-19T17:52:56.217Z,98330.70
2023-01-19T17:55:27.318Z,98329.79
2023-01-19T17:58:00.342Z,98335.94
2023-01-19T18:00:31.694Z,98335.15
2023-01-19T18:03:02.883Z,98338.19
2023-01-19T18:05:33.818Z,98337.13
2023-01-19T18:08:05.171Z,98342.55
2023-01-19T18:10:36.007Z,98346.48
2023-01-19T18:13:07.294Z,98347.16
2023-01-19T18:15:38.460Z,98354.84
2023-01-19T18:18:09.457Z,98356.44
2023-01-19T18:20:40.872Z,98359.20
2023-01-19T18:23:11.656Z,98361.44
2023-01-19T18:25:43.329Z,98362.45
2023-01-19T18:28:14.614Z,98360.21
2023-01-19T18:30:45.807Z,98358.36
2023-01-19T18:33:16.866Z,98359.27
2023-01-19T18:35:48.253Z,98360.42
2023-01-19T18:38:19.378Z,98365.50
2023-01-19T18:40:50.365Z,98367.09
2023-01-19T18:43:21.473Z,98369.83
2023-01-19T18:45:52.380Z,98370.42
2023-01-19T18:48:23.363Z,98368.31
2023-01-19T18:50:54.789Z,98364.36
2023-01-19T18:53:26.291Z,98360.46
2023-01-19T18:55:59.149Z,98366.27
2023-01-19T18:58:31.768Z,98369.03
2023-01-19T19:01:03.580Z,98371.45
2023-01-19T19:03:34.407Z,98370.99
2023-01-19T19:06:06.748Z,98371.16
2023-01-19T19:08:37.899Z,98372.58
2023-01-19T19:11:14.026Z,98371.92
2023-01-19T19:13:45.142Z,98373.48
2023-01-19T19:16:16.671Z,98380.95
2023-01-19T19:18:50.059Z,98376.61
2023-01-19T19:21:22.685Z,98375.16
2023-01-19T19:23:55.578Z,98376.38
2023-01-19T19:26:28.158Z,98380.67
2023-01-19T19:28:59.650Z,98378.10
2023-01-19T19:31:30.827Z,98375.76
2023-01-19T19:34:02.369Z,98378.05
2023-01-19T19:36:33.655Z,98375.96
2023-01-19T19:39:04.792Z,98375.63
2023-01-19T19:41:38.464Z,98374.80
2023-01-19T19:44:07.755Z,98370.03
2023-01-19T19:46:38.814Z,98369.91
2023-01-19T19:49:09.689Z,98374.66
2023-01-19T19:51:40.571Z,98380.73
2023-01-19T19:54:11.775Z,98383.53
2023-01-19T19:56:42.719Z,98377.55
2023-01-19T19:59:13.740Z,98377.78
2023-01-19T20:01:45.429Z,98378.80
2023-01-19T20:04:19.992Z,98378.78
2023-01-19T20:06:51.715Z,98378.59
2023-01-19T20:09:22.669Z,98382.54
2023-01-19T20:11:53.802Z,98387.34
2023-01-19T20:14:25.266Z,98389.95
2023-01-19T20:16:56.112Z,98389.91
2023-01-19T20:19:27.328Z,98390.55
2023-01-19T20:21:58.502Z,98393.73
2023-01-19T20:24:29.547Z,98399.16
2023-01-19T20:27:00.478Z,98404.75
2023-01-19T20:29:31.733Z,98403.84
2023-01-19T20:32:02.557Z,98398.98
2023-01-19T20:34:35.736Z,98397.60
2023-01-19T20:37:06.662Z,98394.01
2023-01-19T20:39:37.491Z,98396.27
2023-01-19T20:42:11.379Z,98393.73
2023-01-19T20:44:43.584Z,98394.81
2023-01-19T20:47:14.464Z,98393.83
2023-01-19T20:49:45.442Z,98392.08
2023-01-19T20:52:16.376Z,98390.42
2023-01-19T20:54:47.590Z,98391.69
2023-01-19T20:57:18.453Z,98389.68
2023-01-19T20:59:49.816Z,98387.71
2023-01-19T21:02:20.897Z,98391.95
2023-01-19T21:04:53.340Z,98388.80
2023-01-19T21:07:24.153Z,98392.69
2023-01-19T21:09:55.394Z,98394.23
2023-01-19T21:12:26.252Z,98395.54
2023-01-19T21:14:57.268Z,98394.62
2023-01-19T21:17:28.576Z,98393.48
2023-01-19T21:19:59.292Z,98392.90
2023-01-19T21:22:30.231Z,98394.18
2023-01-19T21:25:00.980Z,98396.13
2023-01-19T21:27:31.762Z,98397.82
2023-01-19T21:30:02.742Z,98400.04
2023-01-19T21:32:33.445Z,98400.84
2023-01-19T21:35:04.383Z,98401.56
2023-01-19T21:37:35.144Z,98408.10
2023-01-19T21:40:07.432Z,98410.02
2023-01-19T21:42:38.117Z,98412.45
2023-01-19T21:45:10.739Z,98413.77
2023-01-19T21:47:43.293Z,98409.11
2023-01-19T21:50:14.522Z,98412.30
2023-01-19T21:52:45.467Z,98415.70
2023-01-19T21:55:16.343Z,98421.29
2023-01-19T21:57:47.108Z,98424.23
2023-01-19T22:00:19.503Z,98418.69
2023-01-19T22:03:03.188Z,98419.02
2023-01-19T22:05:37.203Z,98417.65
2023-01-19T22:08:08.694Z,98417.98
2023-01-19T22:10:39.975Z,98422.44
2023-01-19T22:13:10.766Z,98417.42
2023-01-19T22:15:41.505Z,98414.58
2023-01-19T22:18:13.136Z,98413.48
2023-01-19T22:20:43.774Z,98413.55
2023-01-19T22:23:14.637Z,98416.96
2023-01-19T22:25:45.325Z,98418.14
2023-01-19T22:28:15.966Z,98419.99
2023-01-19T22:30:46.862Z,98420.59
2023-01-19T22:33:17.691Z,98425.77
2023-01-19T22:35:48.430Z,98425.30
2023-01-19T22:38:19.248Z,98420.81
2023-01-19T22:40:49.878Z,98418.58
2023-01-19T22:43:20.530Z,98418.00
2023-01-19T22:45:51.475Z,98416.31
2023-01-19T22:48:22.364Z,98409.34
2023-01-19T22:50:58.455Z,98409.92
2023-01-19T22:53:29.238Z,98408.69
2023-01-19T22:56:01.209Z,98410.14
2023-01-19T22:58:31.864Z,98405.09
2023-01-19T23:01:09.342Z,98406.46
2023-01-19T23:03:40.927Z,98411.59
2023-01-19T23:06:14.447Z,98414.00
2023-01-19T23:08:45.709Z,98413.66
2023-01-19T23:11:18.132Z,98414.58
2023-01-19T23:13:50.172Z,98413.81
2023-01-19T23:16:21.570Z,98413.23
2023-01-19T23:18:55.629Z,98412.58
2023-01-19T23:21:28.123Z,98409.66
2023-01-19T23:24:01.306Z,98408.61
2023-01-19T23:26:38.064Z,98414.01
2023-01-19T23:29:12.471Z,98415.91
2023-01-19T23:31:47.099Z,98420.40
2023-01-19T23:34:18.385Z,98415.56
2023-01-19T23:36:49.115Z,98421.61
2023-01-19T23:39:21.661Z,98426.48
2023-01-19T23:41:52.749Z,98429.70
2023-01-19T23:44:23.785Z,98428.83
2023-01-19T23:46:54.623Z,98430.70
2023-01-19T23:49:25.669Z,98437.80
2023-01-19T23:51:56.311Z,98438.07
2023-01-19T23:54:27.542Z,98435.23
2023-01-19T23:56:58.197Z,98441.79
2023-01-19T23:59:29.031Z,98444.65
